sensor_id;sensor_type;location;lat;lon;timestamp;P1;durP1;ratioP1;P2;durP2;ratioP2
57401;SDS011;43226;51.110;6.998;2022-08-11T00:01:51;7.93;;;3.40;;
57401;SDS011;43226;51.110;6.998;2022-08-11T00:04:17;5.77;;;2.80;;
57401;SDS011;43226;51.110;6.998;2022-08-11T00:06:44;3.57;;;3.10;;
57401;SDS011;43226;51.110;6.998;2022-08-11T00:09:11;4.90;;;3.27;;
57401;SDS011;43226;51.110;6.998;2022-08-11T00:11:40;6.60;;;3.03;;
57401;SDS011;43226;51.110;6.998;2022-08-11T00:17:02;12.67;;;3.47;;
57401;SDS011;43226;51.110;6.998;2022-08-11T00:19:29;3.90;;;2.73;;
57401;SDS011;43226;51.110;6.998;2022-08-11T00:21:56;11.90;;;3.20;;
57401;SDS011;43226;51.110;6.998;2022-08-11T00:24:22;4.17;;;3.13;;
57401;SDS011;43226;51.110;6.998;2022-08-11T00:26:49;7.83;;;3.10;;
57401;SDS011;43226;51.110;6.998;2022-08-11T00:29:15;4.77;;;3.10;;
57401;SDS011;43226;51.110;6.998;2022-08-11T00:31:52;6.03;;;3.50;;
57401;SDS011;43226;51.110;6.998;2022-08-11T00:34:19;4.47;;;3.70;;
57401;SDS011;43226;51.110;6.998;2022-08-11T00:36:52;8.33;;;4.20;;
57401;SDS011;43226;51.110;6.998;2022-08-11T00:39:19;6.00;;;3.63;;
57401;SDS011;43226;51.110;6.998;2022-08-11T00:44:44;5.17;;;3.70;;
57401;SDS011;43226;51.110;6.998;2022-08-11T01:00:05;7.00;;;3.93;;
57401;SDS011;43226;51.110;6.998;2022-08-11T01:02:40;7.83;;;4.00;;
57401;SDS011;43226;51.110;6.998;2022-08-11T01:13:13;9.83;;;4.27;;
57401;SDS011;43226;51.110;6.998;2022-08-11T01:23:35;8.33;;;4.77;;
57401;SDS011;43226;51.110;6.998;2022-08-11T01:26:18;6.60;;;4.70;;
57401;SDS011;43226;51.110;6.998;2022-08-11T01:36:50;7.70;;;4.50;;
57401;SDS011;43226;51.110;6.998;2022-08-11T01:42:04;5.37;;;4.20;;
57401;SDS011;43226;51.110;6.998;2022-08-11T01:50:36;10.07;;;4.30;;
57401;SDS011;43226;51.110;6.998;2022-08-11T01:58:19;7.20;;;3.97;;
57401;SDS011;43226;51.110;6.998;2022-08-11T02:00:57;5.03;;;3.87;;
57401;SDS011;43226;51.110;6.998;2022-08-11T02:05:57;7.60;;;4.20;;
57401;SDS011;43226;51.110;6.998;2022-08-11T02:11:00;14.13;;;4.40;;
57401;SDS011;43226;51.110;6.998;2022-08-11T02:27:46;4.20;;;3.80;;
57401;SDS011;43226;51.110;6.998;2022-08-11T02:30:14;5.47;;;3.60;;
57401;SDS011;43226;51.110;6.998;2022-08-11T02:35:28;6.47;;;3.47;;
57401;SDS011;43226;51.110;6.998;2022-08-11T02:38:04;5.70;;;4.17;;
57401;SDS011;43226;51.110;6.998;2022-08-11T02:40:33;6.70;;;3.80;;
57401;SDS011;43226;51.110;6.998;2022-08-11T02:43:04;7.07;;;3.80;;
57401;SDS011;43226;51.110;6.998;2022-08-11T02:54:13;5.40;;;3.70;;
57401;SDS011;43226;51.110;6.998;2022-08-11T02:56:56;6.33;;;4.37;;
57401;SDS011;43226;51.110;6.998;2022-08-11T02:59:27;6.37;;;3.90;;
57401;SDS011;43226;51.110;6.998;2022-08-11T03:10:28;4.60;;;3.67;;
57401;SDS011;43226;51.110;6.998;2022-08-11T03:13:40;6.70;;;3.60;;
57401;SDS011;43226;51.110;6.998;2022-08-11T03:16:11;5.20;;;3.30;;
57401;SDS011;43226;51.110;6.998;2022-08-11T03:19:07;5.20;;;3.70;;
57401;SDS011;43226;51.110;6.998;2022-08-11T03:31:48;6.10;;;4.60;;
57401;SDS011;43226;51.110;6.998;2022-08-11T03:34:16;5.40;;;4.00;;
57401;SDS011;43226;51.110;6.998;2022-08-11T03:39:31;4.50;;;3.93;;
57401;SDS011;43226;51.110;6.998;2022-08-11T03:47:33;7.27;;;4.60;;
57401;SDS011;43226;51.110;6.998;2022-08-11T03:55:26;6.10;;;3.50;;
57401;SDS011;43226;51.110;6.998;2022-08-11T04:14:42;8.00;;;4.37;;
57401;SDS011;43226;51.110;6.998;2022-08-11T04:17:05;8.47;;;3.53;;
57401;SDS011;43226;51.110;6.998;2022-08-11T04:20:00;5.87;;;3.77;;
57401;SDS011;43226;51.110;6.998;2022-08-11T04:46:27;5.27;;;4.03;;
57401;SDS011;43226;51.110;6.998;2022-08-11T04:57:36;6.10;;;3.57;;
57401;SDS011;43226;51.110;6.998;2022-08-11T05:00:24;5.50;;;3.47;;
57401;SDS011;43226;51.110;6.998;2022-08-11T05:03:28;7.17;;;3.60;;
57401;SDS011;43226;51.110;6.998;2022-08-11T05:16:53;4.30;;;3.63;;
57401;SDS011;43226;51.110;6.998;2022-08-11T05:19:43;4.67;;;4.17;;
57401;SDS011;43226;51.110;6.998;2022-08-11T05:22:28;4.83;;;3.77;;
57401;SDS011;43226;51.110;6.998;2022-08-11T05:25:17;8.27;;;4.70;;
57401;SDS011;43226;51.110;6.998;2022-08-11T05:30:45;9.13;;;4.07;;
57401;SDS011;43226;51.110;6.998;2022-08-11T05:33:31;5.17;;;3.80;;
57401;SDS011;43226;51.110;6.998;2022-08-11T05:39:01;5.80;;;3.67;;
57401;SDS011;43226;51.110;6.998;2022-08-11T05:41:45;5.93;;;4.07;;
57401;SDS011;43226;51.110;6.998;2022-08-11T05:44:30;7.80;;;3.87;;
57401;SDS011;43226;51.110;6.998;2022-08-11T05:47:22;5.07;;;3.70;;
57401;SDS011;43226;51.110;6.998;2022-08-11T05:50:08;6.20;;;3.80;;
57401;SDS011;43226;51.110;6.998;2022-08-11T05:52:52;5.43;;;3.83;;
57401;SDS011;43226;51.110;6.998;2022-08-11T05:55:38;5.40;;;4.37;;
57401;SDS011;43226;51.110;6.998;2022-08-11T05:58:22;4.33;;;3.93;;
57401;SDS011;43226;51.110;6.998;2022-08-11T06:00:47;4.80;;;3.70;;
57401;SDS011;43226;51.110;6.998;2022-08-11T06:03:24;5.23;;;4.00;;
57401;SDS011;43226;51.110;6.998;2022-08-11T06:05:50;3.77;;;3.47;;
57401;SDS011;43226;51.110;6.998;2022-08-11T06:08:16;6.73;;;3.83;;
57401;SDS011;43226;51.110;6.998;2022-08-11T06:10:42;5.53;;;3.70;;
57401;SDS011;43226;51.110;6.998;2022-08-11T06:13:09;6.73;;;3.60;;
57401;SDS011;43226;51.110;6.998;2022-08-11T06:15:42;6.40;;;3.97;;
57401;SDS011;43226;51.110;6.998;2022-08-11T06:18:09;6.10;;;3.80;;
57401;SDS011;43226;51.110;6.998;2022-08-11T06:20:42;6.67;;;3.93;;
57401;SDS011;43226;51.110;6.998;2022-08-11T06:23:09;6.23;;;3.90;;
57401;SDS011;43226;51.110;6.998;2022-08-11T06:25:35;5.10;;;3.80;;
57401;SDS011;43226;51.110;6.998;2022-08-11T06:28:04;9.50;;;4.40;;
57401;SDS011;43226;51.110;6.998;2022-08-11T06:30:37;5.87;;;3.87;;
57401;SDS011;43226;51.110;6.998;2022-08-11T06:33:06;6.40;;;4.27;;
57401;SDS011;43226;51.110;6.998;2022-08-11T06:38:10;6.83;;;3.80;;
57401;SDS011;43226;51.110;6.998;2022-08-11T06:43:50;5.97;;;3.93;;
57401;SDS011;43226;51.110;6.998;2022-08-11T06:46:17;5.00;;;3.20;;
57401;SDS011;43226;51.110;6.998;2022-08-11T06:48:47;9.20;;;3.80;;
57401;SDS011;43226;51.110;6.998;2022-08-11T06:51:12;5.07;;;3.80;;
57401;SDS011;43226;51.110;6.998;2022-08-11T06:53:38;9.37;;;3.87;;
57401;SDS011;43226;51.110;6.998;2022-08-11T06:56:06;6.40;;;3.93;;
57401;SDS011;43226;51.110;6.998;2022-08-11T06:58:51;4.60;;;3.70;;
57401;SDS011;43226;51.110;6.998;2022-08-11T07:04:04;5.20;;;3.03;;
57401;SDS011;43226;51.110;6.998;2022-08-11T07:09:06;5.27;;;3.57;;
57401;SDS011;43226;51.110;6.998;2022-08-11T07:14:36;5.50;;;3.30;;
57401;SDS011;43226;51.110;6.998;2022-08-11T07:17:21;3.27;;;2.97;;
57401;SDS011;43226;51.110;6.998;2022-08-11T07:19:52;4.83;;;2.90;;
57401;SDS011;43226;51.110;6.998;2022-08-11T07:22:36;5.27;;;3.33;;
57401;SDS011;43226;51.110;6.998;2022-08-11T07:25:35;3.60;;;3.13;;
57401;SDS011;43226;51.110;6.998;2022-08-11T07:28:21;5.37;;;3.40;;
57401;SDS011;43226;51.110;6.998;2022-08-11T07:31:07;7.50;;;3.90;;
57401;SDS011;43226;51.110;6.998;2022-08-11T07:33:49;6.30;;;3.23;;
57401;SDS011;43226;51.110;6.998;2022-08-11T07:36:15;3.80;;;3.07;;
57401;SDS011;43226;51.110;6.998;2022-08-11T07:38:42;4.33;;;2.67;;
57401;SDS011;43226;51.110;6.998;2022-08-11T07:41:09;4.43;;;3.33;;
57401;SDS011;43226;51.110;6.998;2022-08-11T07:43:35;3.80;;;3.37;;
57401;SDS011;43226;51.110;6.998;2022-08-11T07:46:00;5.93;;;3.00;;
57401;SDS011;43226;51.110;6.998;2022-08-11T07:48:46;4.10;;;3.60;;
57401;SDS011;43226;51.110;6.998;2022-08-11T07:51:29;6.30;;;3.50;;
57401;SDS011;43226;51.110;6.998;2022-08-11T07:54:13;5.00;;;3.10;;
57401;SDS011;43226;51.110;6.998;2022-08-11T07:56:40;11.10;;;3.40;;
57401;SDS011;43226;51.110;6.998;2022-08-11T07:59:05;4.47;;;3.20;;
57401;SDS011;43226;51.110;6.998;2022-08-11T08:01:50;4.07;;;3.17;;
57401;SDS011;43226;51.110;6.998;2022-08-11T08:04:34;5.90;;;3.30;;
57401;SDS011;43226;51.110;6.998;2022-08-11T08:07:18;3.73;;;2.83;;
57401;SDS011;43226;51.110;6.998;2022-08-11T08:10:04;4.43;;;2.80;;
57401;SDS011;43226;51.110;6.998;2022-08-11T08:12:48;2.70;;;2.50;;
57401;SDS011;43226;51.110;6.998;2022-08-11T08:15:32;3.50;;;3.13;;
57401;SDS011;43226;51.110;6.998;2022-08-11T08:18:16;7.32;;;3.20;;
57401;SDS011;43226;51.110;6.998;2022-08-11T08:20:47;8.60;;;3.13;;
57401;SDS011;43226;51.110;6.998;2022-08-11T08:23:13;4.83;;;2.83;;
57401;SDS011;43226;51.110;6.998;2022-08-11T08:25:40;3.63;;;3.10;;
57401;SDS011;43226;51.110;6.998;2022-08-11T08:28:06;6.30;;;3.30;;
57401;SDS011;43226;51.110;6.998;2022-08-11T08:30:33;8.30;;;3.17;;
57401;SDS011;43226;51.110;6.998;2022-08-11T08:33:20;5.43;;;3.30;;
57401;SDS011;43226;51.110;6.998;2022-08-11T08:35:47;14.03;;;3.23;;
57401;SDS011;43226;51.110;6.998;2022-08-11T08:38:13;4.67;;;2.70;;
57401;SDS011;43226;51.110;6.998;2022-08-11T08:40:39;4.57;;;3.03;;
57401;SDS011;43226;51.110;6.998;2022-08-11T08:43:06;5.67;;;2.90;;
57401;SDS011;43226;51.110;6.998;2022-08-11T08:45:34;5.60;;;2.97;;
57401;SDS011;43226;51.110;6.998;2022-08-11T08:48:01;5.97;;;3.30;;
57401;SDS011;43226;51.110;6.998;2022-08-11T08:50:31;3.97;;;2.90;;
57401;SDS011;43226;51.110;6.998;2022-08-11T08:53:38;3.70;;;3.20;;
57401;SDS011;43226;51.110;6.998;2022-08-11T08:56:03;3.40;;;2.50;;
57401;SDS011;43226;51.110;6.998;2022-08-11T08:58:29;5.87;;;2.70;;
57401;SDS011;43226;51.110;6.998;2022-08-11T09:00:55;3.37;;;3.07;;
57401;SDS011;43226;51.110;6.998;2022-08-11T09:03:21;4.63;;;2.77;;
57401;SDS011;43226;51.110;6.998;2022-08-11T09:05:46;2.80;;;2.60;;
57401;SDS011;43226;51.110;6.998;2022-08-11T09:08:12;9.63;;;3.03;;
57401;SDS011;43226;51.110;6.998;2022-08-11T09:10:37;5.93;;;2.90;;
57401;SDS011;43226;51.110;6.998;2022-08-11T09:13:03;6.77;;;3.17;;
57401;SDS011;43226;51.110;6.998;2022-08-11T09:15:30;5.13;;;3.00;;
57401;SDS011;43226;51.110;6.998;2022-08-11T09:17:56;3.57;;;2.70;;
57401;SDS011;43226;51.110;6.998;2022-08-11T09:20:30;3.10;;;2.87;;
57401;SDS011;43226;51.110;6.998;2022-08-11T09:23:01;3.03;;;2.70;;
57401;SDS011;43226;51.110;6.998;2022-08-11T09:25:45;7.00;;;2.70;;
57401;SDS011;43226;51.110;6.998;2022-08-11T09:28:29;2.70;;;2.50;;
57401;SDS011;43226;51.110;6.998;2022-08-11T09:30:55;2.70;;;2.50;;
57401;SDS011;43226;51.110;6.998;2022-08-11T09:33:23;3.20;;;2.53;;
57401;SDS011;43226;51.110;6.998;2022-08-11T09:35:49;3.00;;;2.80;;
57401;SDS011;43226;51.110;6.998;2022-08-11T09:38:15;5.37;;;2.97;;
57401;SDS011;43226;51.110;6.998;2022-08-11T09:41:01;3.70;;;2.60;;
57401;SDS011;43226;51.110;6.998;2022-08-11T09:43:26;4.63;;;2.60;;
57401;SDS011;43226;51.110;6.998;2022-08-11T09:46:11;3.43;;;2.67;;
57401;SDS011;43226;51.110;6.998;2022-08-11T09:48:39;3.07;;;2.77;;
57401;SDS011;43226;51.110;6.998;2022-08-11T09:51:04;3.87;;;3.03;;
57401;SDS011;43226;51.110;6.998;2022-08-11T09:53:32;3.77;;;3.20;;
57401;SDS011;43226;51.110;6.998;2022-08-11T09:55:59;3.33;;;3.00;;
57401;SDS011;43226;51.110;6.998;2022-08-11T09:58:44;3.10;;;2.80;;
57401;SDS011;43226;51.110;6.998;2022-08-11T10:01:09;3.30;;;3.00;;
57401;SDS011;43226;51.110;6.998;2022-08-11T10:03:50;5.03;;;2.80;;
57401;SDS011;43226;51.110;6.998;2022-08-11T10:06:16;6.50;;;2.83;;
57401;SDS011;43226;51.110;6.998;2022-08-11T10:09:00;3.70;;;3.40;;
57401;SDS011;43226;51.110;6.998;2022-08-11T10:11:27;3.20;;;3.00;;
57401;SDS011;43226;51.110;6.998;2022-08-11T10:13:52;3.80;;;3.07;;
57401;SDS011;43226;51.110;6.998;2022-08-11T10:16:38;7.27;;;2.67;;
57401;SDS011;43226;51.110;6.998;2022-08-11T10:19:04;4.80;;;3.10;;
57401;SDS011;43226;51.110;6.998;2022-08-11T10:21:31;4.80;;;2.80;;
57401;SDS011;43226;51.110;6.998;2022-08-11T10:24:00;4.00;;;3.50;;
57401;SDS011;43226;51.110;6.998;2022-08-11T10:26:45;4.43;;;2.70;;
57401;SDS011;43226;51.110;6.998;2022-08-11T10:29:26;3.80;;;3.17;;
57401;SDS011;43226;51.110;6.998;2022-08-11T10:32:10;3.03;;;2.73;;
57401;SDS011;43226;51.110;6.998;2022-08-11T10:34:55;3.17;;;2.80;;
57401;SDS011;43226;51.110;6.998;2022-08-11T10:37:22;4.73;;;2.30;;
57401;SDS011;43226;51.110;6.998;2022-08-11T10:39:48;4.20;;;2.80;;
57401;SDS011;43226;51.110;6.998;2022-08-11T10:42:13;6.07;;;3.40;;
57401;SDS011;43226;51.110;6.998;2022-08-11T10:44:57;4.17;;;3.10;;
57401;SDS011;43226;51.110;6.998;2022-08-11T10:47:25;3.43;;;2.60;;
57401;SDS011;43226;51.110;6.998;2022-08-11T10:50:17;3.03;;;2.83;;
57401;SDS011;43226;51.110;6.998;2022-08-11T10:53:01;6.50;;;2.50;;
57401;SDS011;43226;51.110;6.998;2022-08-11T10:55:46;4.00;;;2.83;;
57401;SDS011;43226;51.110;6.998;2022-08-11T10:58:30;3.90;;;2.70;;
57401;SDS011;43226;51.110;6.998;2022-08-11T11:01:21;3.50;;;2.70;;
57401;SDS011;43226;51.110;6.998;2022-08-11T11:03:47;4.60;;;2.70;;
57401;SDS011;43226;51.110;6.998;2022-08-11T11:08:55;6.40;;;3.03;;
57401;SDS011;43226;51.110;6.998;2022-08-11T11:11:23;4.43;;;2.80;;
57401;SDS011;43226;51.110;6.998;2022-08-11T11:14:09;3.37;;;2.73;;
57401;SDS011;43226;51.110;6.998;2022-08-11T11:16:54;4.40;;;2.63;;
57401;SDS011;43226;51.110;6.998;2022-08-11T11:19:35;6.00;;;3.27;;
57401;SDS011;43226;51.110;6.998;2022-08-11T11:22:02;5.23;;;3.20;;
57401;SDS011;43226;51.110;6.998;2022-08-11T11:27:56;5.30;;;2.80;;
57401;SDS011;43226;51.110;6.998;2022-08-11T11:30:17;2.63;;;2.43;;
57401;SDS011;43226;51.110;6.998;2022-08-11T11:32:46;3.53;;;3.20;;
57401;SDS011;43226;51.110;6.998;2022-08-11T11:35:22;3.53;;;2.50;;
57401;SDS011;43226;51.110;6.998;2022-08-11T11:37:50;2.97;;;2.57;;
57401;SDS011;43226;51.110;6.998;2022-08-11T11:40:17;3.93;;;3.20;;
57401;SDS011;43226;51.110;6.998;2022-08-11T11:42:45;5.70;;;3.13;;
57401;SDS011;43226;51.110;6.998;2022-08-11T11:45:14;3.83;;;2.80;;
57401;SDS011;43226;51.110;6.998;2022-08-11T11:47:40;3.53;;;3.07;;
57401;SDS011;43226;51.110;6.998;2022-08-11T11:50:06;3.10;;;2.67;;
57401;SDS011;43226;51.110;6.998;2022-08-11T11:52:31;5.30;;;3.40;;
57401;SDS011;43226;51.110;6.998;2022-08-11T11:54:57;2.70;;;2.50;;
57401;SDS011;43226;51.110;6.998;2022-08-11T11:57:26;3.13;;;2.70;;
57401;SDS011;43226;51.110;6.998;2022-08-11T12:00:10;6.20;;;3.00;;
57401;SDS011;43226;51.110;6.998;2022-08-11T12:02:55;3.17;;;2.77;;
57401;SDS011;43226;51.110;6.998;2022-08-11T12:05:22;5.10;;;3.27;;
57401;SDS011;43226;51.110;6.998;2022-08-11T12:07:48;3.00;;;2.70;;
57401;SDS011;43226;51.110;6.998;2022-08-11T12:10:32;4.00;;;2.60;;
57401;SDS011;43226;51.110;6.998;2022-08-11T12:13:00;6.03;;;2.50;;
57401;SDS011;43226;51.110;6.998;2022-08-11T12:15:45;3.83;;;2.83;;
57401;SDS011;43226;51.110;6.998;2022-08-11T12:18:10;5.47;;;2.87;;
57401;SDS011;43226;51.110;6.998;2022-08-11T12:20:36;8.73;;;3.90;;
57401;SDS011;43226;51.110;6.998;2022-08-11T12:23:01;3.90;;;3.03;;
57401;SDS011;43226;51.110;6.998;2022-08-11T12:25:45;3.10;;;2.80;;
57401;SDS011;43226;51.110;6.998;2022-08-11T12:28:29;3.23;;;2.90;;
57401;SDS011;43226;51.110;6.998;2022-08-11T12:30:55;4.40;;;2.60;;
57401;SDS011;43226;51.110;6.998;2022-08-11T12:33:20;3.00;;;2.70;;
57401;SDS011;43226;51.110;6.998;2022-08-11T12:35:47;6.63;;;3.23;;
57401;SDS011;43226;51.110;6.998;2022-08-11T12:38:16;4.47;;;2.63;;
57401;SDS011;43226;51.110;6.998;2022-08-11T12:40:44;7.87;;;2.90;;
57401;SDS011;43226;51.110;6.998;2022-08-11T12:43:29;4.50;;;2.87;;
57401;SDS011;43226;51.110;6.998;2022-08-11T12:46:24;8.60;;;3.17;;
57401;SDS011;43226;51.110;6.998;2022-08-11T12:48:56;4.03;;;2.80;;
57401;SDS011;43226;51.110;6.998;2022-08-11T12:51:41;4.33;;;3.80;;
57401;SDS011;43226;51.110;6.998;2022-08-11T12:54:33;3.30;;;3.00;;
57401;SDS011;43226;51.110;6.998;2022-08-11T12:57:07;5.40;;;3.10;;
57401;SDS011;43226;51.110;6.998;2022-08-11T12:59:52;3.60;;;3.30;;
57401;SDS011;43226;51.110;6.998;2022-08-11T13:02:37;8.00;;;2.90;;
57401;SDS011;43226;51.110;6.998;2022-08-11T13:05:23;4.40;;;2.70;;
57401;SDS011;43226;51.110;6.998;2022-08-11T13:07:48;7.30;;;3.37;;
57401;SDS011;43226;51.110;6.998;2022-08-11T13:10:14;4.87;;;3.20;;
57401;SDS011;43226;51.110;6.998;2022-08-11T13:13:06;3.50;;;3.20;;
57401;SDS011;43226;51.110;6.998;2022-08-11T13:15:32;3.00;;;2.80;;
57401;SDS011;43226;51.110;6.998;2022-08-11T13:17:58;3.43;;;3.13;;
57401;SDS011;43226;51.110;6.998;2022-08-11T13:20:23;3.33;;;3.03;;
57401;SDS011;43226;51.110;6.998;2022-08-11T13:22:50;4.07;;;2.93;;
57401;SDS011;43226;51.110;6.998;2022-08-11T13:25:16;3.30;;;3.00;;
57401;SDS011;43226;51.110;6.998;2022-08-11T13:27:42;4.80;;;3.43;;
57401;SDS011;43226;51.110;6.998;2022-08-11T13:30:08;3.40;;;3.10;;
57401;SDS011;43226;51.110;6.998;2022-08-11T13:32:52;3.90;;;2.93;;
57401;SDS011;43226;51.110;6.998;2022-08-11T13:35:18;6.63;;;3.70;;
57401;SDS011;43226;51.110;6.998;2022-08-11T13:37:44;6.47;;;3.33;;
57401;SDS011;43226;51.110;6.998;2022-08-11T13:40:10;4.63;;;3.20;;
57401;SDS011;43226;51.110;6.998;2022-08-11T13:42:35;4.73;;;3.10;;
57401;SDS011;43226;51.110;6.998;2022-08-11T13:45:02;2.97;;;2.77;;
57401;SDS011;43226;51.110;6.998;2022-08-11T13:47:27;3.53;;;3.17;;
57401;SDS011;43226;51.110;6.998;2022-08-11T13:49:52;10.40;;;3.17;;
57401;SDS011;43226;51.110;6.998;2022-08-11T13:52:18;3.50;;;2.83;;
57401;SDS011;43226;51.110;6.998;2022-08-11T13:54:45;3.37;;;3.07;;
57401;SDS011;43226;51.110;6.998;2022-08-11T13:57:12;2.73;;;2.53;;
57401;SDS011;43226;51.110;6.998;2022-08-11T13:59:40;3.07;;;2.87;;
57401;SDS011;43226;51.110;6.998;2022-08-11T14:02:06;3.43;;;3.13;;
57401;SDS011;43226;51.110;6.998;2022-08-11T14:04:37;4.63;;;3.43;;
57401;SDS011;43226;51.110;6.998;2022-08-11T14:07:05;3.30;;;2.93;;
57401;SDS011;43226;51.110;6.998;2022-08-11T14:09:34;3.13;;;2.90;;
57401;SDS011;43226;51.110;6.998;2022-08-11T14:12:01;3.90;;;3.13;;
57401;SDS011;43226;51.110;6.998;2022-08-11T14:14:46;5.77;;;3.33;;
57401;SDS011;43226;51.110;6.998;2022-08-11T14:17:12;4.23;;;3.10;;
57401;SDS011;43226;51.110;6.998;2022-08-11T14:19:41;3.73;;;3.37;;
57401;SDS011;43226;51.110;6.998;2022-08-11T14:22:08;3.63;;;2.77;;
57401;SDS011;43226;51.110;6.998;2022-08-11T14:24:36;6.10;;;3.50;;
57401;SDS011;43226;51.110;6.998;2022-08-11T14:27:01;3.63;;;3.33;;
57401;SDS011;43226;51.110;6.998;2022-08-11T14:29:27;4.37;;;3.13;;
57401;SDS011;43226;51.110;6.998;2022-08-11T14:31:58;4.53;;;2.90;;
57401;SDS011;43226;51.110;6.998;2022-08-11T14:34:27;4.60;;;3.40;;
57401;SDS011;43226;51.110;6.998;2022-08-11T14:37:00;5.27;;;3.10;;
57401;SDS011;43226;51.110;6.998;2022-08-11T14:40:08;3.50;;;3.17;;
57401;SDS011;43226;51.110;6.998;2022-08-11T14:42:15;3.80;;;3.23;;
57401;SDS011;43226;51.110;6.998;2022-08-11T14:45:04;4.00;;;3.20;;
57401;SDS011;43226;51.110;6.998;2022-08-11T14:47:53;5.20;;;3.23;;
57401;SDS011;43226;51.110;6.998;2022-08-11T14:50:25;6.73;;;3.30;;
57401;SDS011;43226;51.110;6.998;2022-08-11T14:53:01;3.90;;;2.77;;
57401;SDS011;43226;51.110;6.998;2022-08-11T14:55:31;5.37;;;3.20;;
57401;SDS011;43226;51.110;6.998;2022-08-11T14:58:17;3.77;;;3.47;;
57401;SDS011;43226;51.110;6.998;2022-08-11T15:00:42;3.60;;;3.30;;
57401;SDS011;43226;51.110;6.998;2022-08-11T15:03:09;3.20;;;3.00;;
57401;SDS011;43226;51.110;6.998;2022-08-11T15:08:06;3.50;;;3.10;;
57401;SDS011;43226;51.110;6.998;2022-08-11T15:10:32;4.80;;;3.20;;
57401;SDS011;43226;51.110;6.998;2022-08-11T15:12:57;3.60;;;3.03;;
57401;SDS011;43226;51.110;6.998;2022-08-11T15:15:24;5.10;;;3.37;;
57401;SDS011;43226;51.110;6.998;2022-08-11T15:18:09;6.70;;;4.00;;
57401;SDS011;43226;51.110;6.998;2022-08-11T15:20:35;7.57;;;4.07;;
57401;SDS011;43226;51.110;6.998;2022-08-11T15:23:19;4.10;;;3.70;;
57401;SDS011;43226;51.110;6.998;2022-08-11T15:26:05;3.60;;;3.30;;
57401;SDS011;43226;51.110;6.998;2022-08-11T15:28:33;6.93;;;3.30;;
57401;SDS011;43226;51.110;6.998;2022-08-11T15:31:17;5.47;;;3.60;;
57401;SDS011;43226;51.110;6.998;2022-08-11T15:34:03;4.50;;;3.20;;
57401;SDS011;43226;51.110;6.998;2022-08-11T15:36:48;3.50;;;3.20;;
57401;SDS011;43226;51.110;6.998;2022-08-11T15:42:44;3.70;;;3.40;;
57401;SDS011;43226;51.110;6.998;2022-08-11T15:45:29;5.73;;;3.57;;
57401;SDS011;43226;51.110;6.998;2022-08-11T15:48:26;3.30;;;3.00;;
57401;SDS011;43226;51.110;6.998;2022-08-11T15:50:53;6.97;;;4.10;;
57401;SDS011;43226;51.110;6.998;2022-08-11T15:53:37;3.70;;;3.07;;
57401;SDS011;43226;51.110;6.998;2022-08-11T15:56:03;4.50;;;3.33;;
57401;SDS011;43226;51.110;6.998;2022-08-11T15:58:31;4.43;;;3.03;;
57401;SDS011;43226;51.110;6.998;2022-08-11T16:01:16;5.67;;;3.00;;
57401;SDS011;43226;51.110;6.998;2022-08-11T16:04:02;3.97;;;3.57;;
57401;SDS011;43226;51.110;6.998;2022-08-11T16:06:36;6.43;;;3.10;;
57401;SDS011;43226;51.110;6.998;2022-08-11T16:09:03;4.10;;;3.50;;
57401;SDS011;43226;51.110;6.998;2022-08-11T16:11:30;4.27;;;3.53;;
57401;SDS011;43226;51.110;6.998;2022-08-11T16:13:56;5.47;;;3.53;;
57401;SDS011;43226;51.110;6.998;2022-08-11T16:16:41;3.80;;;3.50;;
57401;SDS011;43226;51.110;6.998;2022-08-11T16:19:07;4.00;;;3.27;;
57401;SDS011;43226;51.110;6.998;2022-08-11T16:21:35;5.20;;;3.40;;
57401;SDS011;43226;51.110;6.998;2022-08-11T16:24:02;4.63;;;3.73;;
57401;SDS011;43226;51.110;6.998;2022-08-11T16:26:28;4.30;;;3.77;;
57401;SDS011;43226;51.110;6.998;2022-08-11T16:28:55;6.87;;;3.67;;
57401;SDS011;43226;51.110;6.998;2022-08-11T16:31:21;3.77;;;3.47;;
57401;SDS011;43226;51.110;6.998;2022-08-11T16:33:47;5.43;;;3.43;;
57401;SDS011;43226;51.110;6.998;2022-08-11T16:36:13;4.50;;;4.07;;
57401;SDS011;43226;51.110;6.998;2022-08-11T16:38:58;5.80;;;3.60;;
57401;SDS011;43226;51.110;6.998;2022-08-11T16:41:24;5.30;;;3.60;;
57401;SDS011;43226;51.110;6.998;2022-08-11T16:44:10;4.83;;;3.60;;
57401;SDS011;43226;51.110;6.998;2022-08-11T16:46:55;6.00;;;4.00;;
57401;SDS011;43226;51.110;6.998;2022-08-11T16:49:25;3.80;;;3.50;;
57401;SDS011;43226;51.110;6.998;2022-08-11T16:51:52;6.50;;;4.10;;
57401;SDS011;43226;51.110;6.998;2022-08-11T16:54:18;3.50;;;3.20;;
57401;SDS011;43226;51.110;6.998;2022-08-11T16:56:52;4.80;;;3.70;;
57401;SDS011;43226;51.110;6.998;2022-08-11T16:59:18;7.43;;;3.80;;
57401;SDS011;43226;51.110;6.998;2022-08-11T17:01:45;6.00;;;3.20;;
57401;SDS011;43226;51.110;6.998;2022-08-11T17:04:16;8.57;;;3.67;;
57401;SDS011;43226;51.110;6.998;2022-08-11T17:07:02;5.00;;;3.57;;
57401;SDS011;43226;51.110;6.998;2022-08-11T17:09:46;5.10;;;3.53;;
57401;SDS011;43226;51.110;6.998;2022-08-11T17:12:31;5.37;;;3.27;;
57401;SDS011;43226;51.110;6.998;2022-08-11T17:15:17;5.83;;;3.23;;
57401;SDS011;43226;51.110;6.998;2022-08-11T17:18:01;3.80;;;3.40;;
57401;SDS011;43226;51.110;6.998;2022-08-11T17:20:27;4.73;;;3.50;;
57401;SDS011;43226;51.110;6.998;2022-08-11T17:22:53;7.87;;;3.53;;
57401;SDS011;43226;51.110;6.998;2022-08-11T17:25:38;5.70;;;3.70;;
57401;SDS011;43226;51.110;6.998;2022-08-11T17:28:03;8.60;;;3.50;;
57401;SDS011;43226;51.110;6.998;2022-08-11T17:30:29;3.47;;;3.23;;
57401;SDS011;43226;51.110;6.998;2022-08-11T17:33:14;6.77;;;4.00;;
57401;SDS011;43226;51.110;6.998;2022-08-11T17:35:58;5.70;;;3.53;;
57401;SDS011;43226;51.110;6.998;2022-08-11T17:38:25;4.70;;;3.27;;
57401;SDS011;43226;51.110;6.998;2022-08-11T17:40:52;5.40;;;3.50;;
57401;SDS011;43226;51.110;6.998;2022-08-11T17:43:36;7.67;;;3.60;;
57401;SDS011;43226;51.110;6.998;2022-08-11T17:46:21;8.20;;;3.37;;
57401;SDS011;43226;51.110;6.998;2022-08-11T17:49:06;5.00;;;3.50;;
57401;SDS011;43226;51.110;6.998;2022-08-11T17:51:32;4.43;;;4.03;;
57401;SDS011;43226;51.110;6.998;2022-08-11T17:54:16;5.23;;;3.87;;
57401;SDS011;43226;51.110;6.998;2022-08-11T17:57:01;3.60;;;3.30;;
57401;SDS011;43226;51.110;6.998;2022-08-11T17:59:45;4.13;;;3.83;;
57401;SDS011;43226;51.110;6.998;2022-08-11T18:02:18;8.13;;;4.03;;
57401;SDS011;43226;51.110;6.998;2022-08-11T18:05:04;4.27;;;3.80;;
57401;SDS011;43226;51.110;6.998;2022-08-11T18:07:29;6.40;;;3.50;;
57401;SDS011;43226;51.110;6.998;2022-08-11T18:10:13;5.70;;;3.60;;
57401;SDS011;43226;51.110;6.998;2022-08-11T18:12:57;4.13;;;3.43;;
57401;SDS011;43226;51.110;6.998;2022-08-11T18:15:42;5.13;;;3.60;;
57401;SDS011;43226;51.110;6.998;2022-08-11T18:18:26;6.13;;;4.03;;
57401;SDS011;43226;51.110;6.998;2022-08-11T18:21:10;5.20;;;3.97;;
57401;SDS011;43226;51.110;6.998;2022-08-11T18:23:56;4.80;;;3.90;;
57401;SDS011;43226;51.110;6.998;2022-08-11T18:26:43;15.20;;;4.80;;
57401;SDS011;43226;51.110;6.998;2022-08-11T18:29:29;5.30;;;3.67;;
57401;SDS011;43226;51.110;6.998;2022-08-11T18:32:13;4.80;;;3.77;;
57401;SDS011;43226;51.110;6.998;2022-08-11T18:34:58;5.60;;;3.70;;
57401;SDS011;43226;51.110;6.998;2022-08-11T18:37:44;14.07;;;4.10;;
57401;SDS011;43226;51.110;6.998;2022-08-11T18:40:29;6.10;;;4.27;;
57401;SDS011;43226;51.110;6.998;2022-08-11T18:43:14;10.23;;;3.70;;
57401;SDS011;43226;51.110;6.998;2022-08-11T18:46:04;5.20;;;3.50;;
57401;SDS011;43226;51.110;6.998;2022-08-11T18:48:49;14.60;;;4.33;;
57401;SDS011;43226;51.110;6.998;2022-08-11T18:51:34;5.73;;;4.33;;
57401;SDS011;43226;51.110;6.998;2022-08-11T18:54:19;4.40;;;4.00;;
57401;SDS011;43226;51.110;6.998;2022-08-11T18:57:04;7.67;;;4.03;;
57401;SDS011;43226;51.110;6.998;2022-08-11T18:59:49;7.93;;;3.80;;
57401;SDS011;43226;51.110;6.998;2022-08-11T19:02:35;8.97;;;4.10;;